Terminal Aerodrome Forecast
Issued by NWS

Home | Current Version | Previous Version | Text Only | Print | Product List | Glossary On
Versions: 1 2 3 4 5 6 7 8 9 10 11 12 13
000
FTUS45 KRIW 241700
TAFRKS
TAF
KRKS 241720Z 2418/2518 25018KT P6SM SCT150
     FM242000 26022G31KT P6SM BKN150
     FM250300 28012KT P6SM SCT150 BKN200
     FM250800 15008KT P6SM SCT100 BKN200
     FM251500 21015KT P6SM BKN100=

USA.gov is the U.S. government's official web portal to all federal, state and local government web resources and services.